• Join FlightAware (Why Join?)
  • Login
  • US Flag 
01:48PM EST


 

Airport Tracker/Info


-or-


 

Live Flight TrackerFlight Track Log ✈ CES5390 ✈ 07-Jul-2013 ✈ ZHLY / LYA - ZSSS / SHA

Flight Track Log - Related Links

Times and Time Zones

All times are in EDT time to prevent confusion due to time zone crossing. See the CES5390 flight status page for this flight to view local times or setup timezone preferences in your user account.

Time Position Orientation Groundspeed Altitude Reporting Facility
EDT Latitude Longitude Course Direction KTS MPH feet Rate Location/Type
11:46PM 33.6316 115.4518 113° Southeast  Level Estimated
11:47PM 33.5856 115.5727 115° Southeast  Level Estimated
11:48PM 33.5396 115.6934 115° Southeast  Level Estimated
11:49PM 33.4934 115.8140 115° Southeast  Level Estimated
11:50PM 33.4471 115.9345 115° Southeast  Level Estimated
11:51PM 33.4007 116.0548 115° Southeast  Level Estimated
11:52PM 33.3541 116.1751 115° Southeast  Level Estimated
11:53PM 33.3075 116.2952 115° Southeast  Level Estimated
11:54PM 33.2607 116.4151 115° Southeast  Level Estimated
11:55PM 33.2139 116.5350 115° Southeast  Level Estimated
11:56PM 33.1669 116.6547 115° Southeast  Level Estimated
11:57PM 33.1198 116.7742 115° Southeast  Level Estimated
11:58PM 33.0726 116.8937 115° Southeast  Level Estimated
11:59PM 33.0252 117.0130 115° Southeast  Level Estimated
12:00AM 32.9778 117.1322 115° Southeast  Level Estimated
12:01AM 32.9302 117.2513 115° Southeast  Level Estimated
12:02AM 32.8825 117.3702 115° Southeast  Level Estimated
12:03AM 32.8348 117.4890 116° Southeast  Level Estimated
12:04AM 32.7869 117.6077 116° Southeast  Level Estimated
12:05AM 32.7389 117.7262 116° Southeast  Level Estimated
12:06AM 32.6907 117.8447 116° Southeast  Level Estimated
12:07AM 32.6425 117.9630 116° Southeast  Level Estimated
12:08AM 32.5942 118.0811 116° Southeast  Level Estimated
12:09AM 32.5457 118.1992 116° Southeast  Level Estimated
12:10AM 32.4972 118.3171 116° Southeast  Level Estimated
12:11AM 32.4485 118.4349 116° Southeast  Level Estimated
12:12AM 32.3997 118.5525 116° Southeast  Level Estimated
12:13AM 32.3508 118.6701 116° Southeast  Level Estimated
12:14AM 32.3018 118.7875 116° Southeast  Level Estimated
12:15AM 32.2527 118.9047 116° Southeast  Level Estimated
12:16AM 32.2035 119.0219 116° Southeast  Level Estimated
12:17AM 32.1542 119.1389 116° Southeast  Level Estimated
12:18AM 32.1047 119.2558 117° Southeast  Level Estimated
12:19AM 32.0552 119.3726 117° Southeast  Level Estimated
12:20AM 32.0056 119.4892 117° Southeast  Level Estimated
12:21AM 31.9558 119.6057 117° Southeast  Level Estimated
12:22AM 31.9059 119.7221 117° Southeast  Level Estimated
12:23AM 31.8560 119.8384 117° Southeast  Level Estimated
12:24AM 31.8059 119.9545 117° Southeast  Level Estimated
12:25AM 31.7557 120.0705 117° Southeast  Level Estimated
12:26AM 31.7055 120.1864 117° Southeast  Level Estimated
12:27AM 31.6551 120.3022 117° Southeast  Level Estimated
12:28AM 31.6046 120.4178 117° Southeast  Level Estimated
12:29AM 31.5540 120.5333 117° Southeast  Level Estimated
12:29AM 31.5880 120.3350 117° Southeast 357 411 12,600  Level FlightAware
12:30AM 31.5033 120.6487 117° Southeast  Level Estimated
12:30AM 31.5680 120.4030 109° East 353 406 12,100  Level FlightAware
12:31AM 31.5410 120.4920 110° East 352 405 11,800 -240 Descending FlightAware
12:31AM 31.5190 120.5630 110° East 337 388 11,800 -180 Level FlightAware
12:32AM 31.5000 120.6280 109° East 306 352 11,600 -1,020 Descending FlightAware
12:33AM 31.4800 120.6920 110° East 307 353 10,500 -1,560 Descending FlightAware
12:33AM 31.4660 120.7380 110° East 305 351 9,800 -1,500 Descending FlightAware
12:34AM 31.4510 120.7850 111° Southeast 305 351 9,000 -1,560 Descending FlightAware
12:34AM 31.4390 120.8240 110° East 301 346 8,400 -1,320 Descending FlightAware
12:35AM 31.4250 120.8700 110° East 298 343 7,800 -1,320 Descending FlightAware
12:35AM 31.4130 120.9080 110° East 294 338 7,200 -1,560 Descending FlightAware
12:36AM 31.4020 120.9450 109° East 294 338 6,500 -1,620 Descending FlightAware
12:36AM 31.3900 120.9830 110° East 295 339 5,900 -1,200 Descending FlightAware
12:36AM 31.3770 121.0270 109° East 286 329 5,400 -1,200 Descending FlightAware
12:37AM 31.3640 121.0700 109° East 280 322 4,700 -1,320 Descending FlightAware
12:37AM 31.3570 121.0940 109° East 279 321 4,300 -1,380 Descending FlightAware
12:38AM 31.3530 121.1220 99° East 286 329 3,900 -1,080 Descending FlightAware
12:38AM 31.3570 121.1600 83° East 276 318 3,600 -780 Descending FlightAware
12:38AM 31.3600 121.1810 80° East 268 308 3,400 -600 Descending FlightAware
12:39AM 31.3630 121.2100 83° East 257 296 3,200 -240 Descending FlightAware
12:39AM 31.3660 121.2400 83° East 257 296 3,200 -660 Level FlightAware
12:40AM 31.3680 121.3030 88° East 204 235 2,500 -900 Descending FlightAware
12:40AM 31.3560 121.3160 137° Southeast 191 220 2,300 -600 Descending FlightAware
12:40AM 31.3470 121.3210 155° Southeast 176 203 2,200 -360 Descending FlightAware
12:41AM 31.3300 121.3270 163° South 169 194 2,100 -120 Descending FlightAware
12:41AM 31.3130 121.3330 163° South 169 194 2,100 -600 Level FlightAware
12:42AM 31.2590 121.3330 180° South 147 169 1,100 -780 Descending FlightAware
12:43AM 31.2460 121.3340 176° South 133 153 800 -720 Descending FlightAware
12:43AM 31.2320 121.3340 180° South 132 152 600 -540 Descending FlightAware
12:44AM 31.2180 121.3350 177° South 132 152 400 -480 Descending FlightAware
12:44AM 31.2000 121.3360 177° South 86 99 -840 Descending FlightAware
12:45AM 31.1900 121.3370 175° South 86 99  Level FlightAware
12:47AM 31.1979 121.3363 356° North  Level Estimated
12:48AM 31.1979 121.3363 350° North  Level Estimated
12:49AM 31.1979 121.3363 350° North  Level Estimated
12:50AM 31.1979 121.3363 350° North  Level Estimated